This is the latest recevied weather packets stored in our database for station/object KD5HIA. If no packets are shown the sender has not sent any weather packets the latest 10 day(s).
| Time | Temp. | Humidity | Pressure | Rain* | Wind** | Luminosity | Snow |
|---|---|---|---|---|---|---|---|
| 1777815017 | 13.89° C | 75% | 1022.9 hPa | 0 mm | - | 180 W/m² | - |
| 1777814418 | 13.33° C | 75% | 1022.8 hPa | 0 mm | - | 146 W/m² | - |
| 1777813817 | 12.78° C | 77% | 1022.7 hPa | 0 mm | - | 108 W/m² | - |
| 1777813217 | 12.78° C | 76% | 1022.6 hPa | 0 mm | - | 87 W/m² | - |
| 1777812617 | 12.22° C | 75% | 1022.7 hPa | 0 mm | - | 58 W/m² | - |
| 1777812017 | 12.22° C | 76% | 1022.5 hPa | 0 mm | - | 41 W/m² | - |
| 1777811417 | 11.67° C | 77% | 1022.5 hPa | 0 mm | - | 22 W/m² | - |
| 1777810817 | 11.67° C | 78% | 1022.5 hPa | 0 mm | - | 15 W/m² | - |
| 1777810217 | 11.11° C | 79% | 1022.1 hPa | 0 mm | - | 11 W/m² | - |
| 1777809617 | 11.11° C | 79% | 1022 hPa | 0 mm | - | 0 W/m² | - |
| 1777809017 | 11.67° C | 78% | 1022.1 hPa | 0 mm | - | 0 W/m² | - |
| 1777808417 | 11.67° C | 78% | 1022 hPa | 0 mm | - | 0 W/m² | - |
| 1777807817 | 11.67° C | 78% | 1022 hPa | 0 mm | - | 0 W/m² | - |
| 1777807217 | 11.67° C | 77% | 1022 hPa | 0 mm | - | 0 W/m² | - |
| 1777806617 | 11.67° C | 76% | 1021.9 hPa | 0 mm | - | 0 W/m² | - |
| 1777806017 | 12.22° C | 74% | 1021.8 hPa | 0 mm | - | 0 W/m² | - |
| 1777805417 | 12.22° C | 75% | 1021.9 hPa | 0 mm | - | 0 W/m² | - |
| 1777804817 | 12.22° C | 75% | 1021.9 hPa | 0 mm | - | 0 W/m² | - |
| 1777804217 | 12.22° C | 75% | 1021.7 hPa | 0 mm | - | 0 W/m² | - |
| 1777803617 | 12.22° C | 74% | 1021.8 hPa | 0 mm | - | 0 W/m² | - |
| 1777803017 | 12.22° C | 74% | 1021.9 hPa | 0 mm | - | 0 W/m² | - |
| 1777802417 | 12.22° C | 76% | 1021.7 hPa | 0 mm | - | 0 W/m² | - |
| 1777801817 | 11.67° C | 77% | 1021.7 hPa | 0 mm | - | 0 W/m² | - |
| 1777801217 | 12.22° C | 75% | 1021.8 hPa | 0 mm | - | 0 W/m² | - |
| 1777800617 | 12.22° C | 76% | 1021.9 hPa | 0 mm | - | 0 W/m² | - |
* Rain latest hour (hover to see other rain measurements)
** Current wind speed in m/s (hover to see current wind gust speed)